sensor_id;sensor_type;location;lat;lon;timestamp;P1;durP1;ratioP1;P2;durP2;ratioP2
75356;SDS011;63946;51.986;5.930;2024-03-23T00:55:49;17.25;;;5.72;;
75356;SDS011;63946;51.986;5.930;2024-03-23T00:58:15;17.33;;;5.70;;
75356;SDS011;63946;51.986;5.930;2024-03-23T01:00:42;18.20;;;5.88;;
75356;SDS011;63946;51.986;5.930;2024-03-23T01:03:08;19.23;;;6.03;;
75356;SDS011;63946;51.986;5.930;2024-03-23T01:05:34;18.35;;;6.38;;
75356;SDS011;63946;51.986;5.930;2024-03-23T01:08:00;21.88;;;7.35;;
75356;SDS011;63946;51.986;5.930;2024-03-23T01:10:26;19.10;;;6.75;;
75356;SDS011;63946;51.986;5.930;2024-03-23T01:12:52;21.15;;;6.63;;
75356;SDS011;63946;51.986;5.930;2024-03-23T01:15:18;17.30;;;7.10;;
75356;SDS011;63946;51.986;5.930;2024-03-23T01:17:45;22.25;;;6.55;;
75356;SDS011;63946;51.986;5.930;2024-03-23T01:20:11;16.90;;;6.68;;
75356;SDS011;63946;51.986;5.930;2024-03-23T01:22:37;16.08;;;6.30;;
75356;SDS011;63946;51.986;5.930;2024-03-23T01:25:05;21.17;;;6.57;;
75356;SDS011;63946;51.986;5.930;2024-03-23T01:27:31;20.60;;;7.80;;
75356;SDS011;63946;51.986;5.930;2024-03-23T01:29:57;20.40;;;7.13;;
75356;SDS011;63946;51.986;5.930;2024-03-23T01:32:23;19.40;;;6.43;;
75356;SDS011;63946;51.986;5.930;2024-03-23T01:34:49;17.73;;;7.15;;
75356;SDS011;63946;51.986;5.930;2024-03-23T01:37:15;17.75;;;7.28;;
75356;SDS011;63946;51.986;5.930;2024-03-23T01:39:41;18.25;;;6.45;;
75356;SDS011;63946;51.986;5.930;2024-03-23T01:42:08;18.08;;;7.70;;
75356;SDS011;63946;51.986;5.930;2024-03-23T01:44:34;17.10;;;6.60;;
75356;SDS011;63946;51.986;5.930;2024-03-23T01:47:00;19.77;;;7.13;;
75356;SDS011;63946;51.986;5.930;2024-03-23T01:49:26;18.00;;;6.93;;
75356;SDS011;63946;51.986;5.930;2024-03-23T01:51:52;16.52;;;7.47;;
75356;SDS011;63946;51.986;5.930;2024-03-23T01:54:18;19.00;;;6.50;;
75356;SDS011;63946;51.986;5.930;2024-03-23T01:56:45;19.00;;;7.45;;
75356;SDS011;63946;51.986;5.930;2024-03-23T01:59:11;15.80;;;7.32;;
75356;SDS011;63946;51.986;5.930;2024-03-23T02:01:37;20.90;;;7.55;;
75356;SDS011;63946;51.986;5.930;2024-03-23T02:04:03;19.08;;;7.75;;
75356;SDS011;63946;51.986;5.930;2024-03-23T02:06:30;17.17;;;6.95;;
75356;SDS011;63946;51.986;5.930;2024-03-23T02:08:56;16.67;;;6.38;;
75356;SDS011;63946;51.986;5.930;2024-03-23T02:11:23;16.13;;;6.65;;
75356;SDS011;63946;51.986;5.930;2024-03-23T02:13:49;15.00;;;6.85;;
75356;SDS011;63946;51.986;5.930;2024-03-23T02:16:15;12.93;;;5.55;;
75356;SDS011;63946;51.986;5.930;2024-03-23T02:18:41;14.50;;;6.43;;
75356;SDS011;63946;51.986;5.930;2024-03-23T02:21:07;16.98;;;5.68;;
75356;SDS011;63946;51.986;5.930;2024-03-23T02:23:34;14.63;;;6.63;;
75356;SDS011;63946;51.986;5.930;2024-03-23T02:26:00;14.10;;;6.32;;
75356;SDS011;63946;51.986;5.930;2024-03-23T02:28:26;15.55;;;6.47;;
75356;SDS011;63946;51.986;5.930;2024-03-23T02:30:52;14.98;;;6.82;;
75356;SDS011;63946;51.986;5.930;2024-03-23T02:33:18;15.90;;;6.38;;
75356;SDS011;63946;51.986;5.930;2024-03-23T02:35:45;17.60;;;6.85;;
75356;SDS011;63946;51.986;5.930;2024-03-23T02:38:11;14.52;;;6.38;;
75356;SDS011;63946;51.986;5.930;2024-03-23T02:40:37;22.27;;;7.43;;
75356;SDS011;63946;51.986;5.930;2024-03-23T02:43:03;19.50;;;7.60;;
75356;SDS011;63946;51.986;5.930;2024-03-23T02:45:30;16.60;;;6.75;;
75356;SDS011;63946;51.986;5.930;2024-03-23T02:47:56;18.42;;;7.43;;
75356;SDS011;63946;51.986;5.930;2024-03-23T02:50:22;16.67;;;6.88;;
75356;SDS011;63946;51.986;5.930;2024-03-23T02:52:48;19.58;;;7.68;;
75356;SDS011;63946;51.986;5.930;2024-03-23T02:55:15;14.80;;;7.50;;
75356;SDS011;63946;51.986;5.930;2024-03-23T02:57:41;13.02;;;6.57;;
75356;SDS011;63946;51.986;5.930;2024-03-23T03:00:08;22.10;;;7.60;;
75356;SDS011;63946;51.986;5.930;2024-03-23T07:56:15;8.15;;;2.55;;
75356;SDS011;63946;51.986;5.930;2024-03-23T07:58:41;9.25;;;2.50;;
75356;SDS011;63946;51.986;5.930;2024-03-23T08:01:09;9.40;;;2.53;;
75356;SDS011;63946;51.986;5.930;2024-03-23T08:03:36;10.18;;;2.50;;
75356;SDS011;63946;51.986;5.930;2024-03-23T08:06:10;7.30;;;2.63;;
75356;SDS011;63946;51.986;5.930;2024-03-23T08:08:38;7.78;;;2.67;;
75356;SDS011;63946;51.986;5.930;2024-03-23T08:11:05;9.60;;;2.70;;
75356;SDS011;63946;51.986;5.930;2024-03-23T08:13:32;7.13;;;2.35;;
75356;SDS011;63946;51.986;5.930;2024-03-23T08:15:59;8.07;;;2.58;;
75356;SDS011;63946;51.986;5.930;2024-03-23T08:18:26;8.85;;;2.35;;
75356;SDS011;63946;51.986;5.930;2024-03-23T08:20:56;7.97;;;2.60;;
75356;SDS011;63946;51.986;5.930;2024-03-23T08:23:26;7.78;;;2.35;;
75356;SDS011;63946;51.986;5.930;2024-03-23T08:26:03;10.25;;;2.70;;
75356;SDS011;63946;51.986;5.930;2024-03-23T08:30:56;9.02;;;2.38;;
75356;SDS011;63946;51.986;5.930;2024-03-23T08:33:23;10.63;;;2.55;;
75356;SDS011;63946;51.986;5.930;2024-03-23T08:35:55;6.38;;;2.42;;
75356;SDS011;63946;51.986;5.930;2024-03-23T08:38:27;8.32;;;2.80;;
75356;SDS011;63946;51.986;5.930;2024-03-23T08:41:03;7.70;;;1.75;;
75356;SDS011;63946;51.986;5.930;2024-03-23T08:48:31;8.57;;;2.67;;
75356;SDS011;63946;51.986;5.930;2024-03-23T08:53:30;8.77;;;2.65;;
75356;SDS011;63946;51.986;5.930;2024-03-23T08:55:57;8.80;;;2.05;;
75356;SDS011;63946;51.986;5.930;2024-03-23T08:58:24;6.85;;;2.03;;
75356;SDS011;63946;51.986;5.930;2024-03-23T09:00:54;9.73;;;2.40;;
75356;SDS011;63946;51.986;5.930;2024-03-23T09:03:25;7.13;;;1.73;;
75356;SDS011;63946;51.986;5.930;2024-03-23T09:05:51;5.60;;;1.95;;
75356;SDS011;63946;51.986;5.930;2024-03-23T09:08:18;5.88;;;2.05;;
75356;SDS011;63946;51.986;5.930;2024-03-23T09:10:44;3.55;;;1.50;;
75356;SDS011;63946;51.986;5.930;2024-03-23T09:13:11;7.43;;;1.88;;
75356;SDS011;63946;51.986;5.930;2024-03-23T09:15:37;7.93;;;1.70;;
75356;SDS011;63946;51.986;5.930;2024-03-23T09:18:11;7.45;;;1.67;;
75356;SDS011;63946;51.986;5.930;2024-03-23T09:20:40;5.65;;;1.67;;
75356;SDS011;63946;51.986;5.930;2024-03-23T09:23:06;6.10;;;1.75;;
75356;SDS011;63946;51.986;5.930;2024-03-23T09:25:35;10.10;;;2.38;;
75356;SDS011;63946;51.986;5.930;2024-03-23T09:28:02;7.55;;;1.88;;
75356;SDS011;63946;51.986;5.930;2024-03-23T09:30:28;8.30;;;1.98;;
75356;SDS011;63946;51.986;5.930;2024-03-23T09:32:54;7.15;;;2.25;;
75356;SDS011;63946;51.986;5.930;2024-03-23T09:35:20;4.97;;;1.50;;
75356;SDS011;63946;51.986;5.930;2024-03-23T09:37:46;6.35;;;1.45;;
75356;SDS011;63946;51.986;5.930;2024-03-23T09:40:13;11.00;;;1.80;;
75356;SDS011;63946;51.986;5.930;2024-03-23T09:42:39;3.00;;;1.45;;
75356;SDS011;63946;51.986;5.930;2024-03-23T09:45:06;7.25;;;1.70;;
75356;SDS011;63946;51.986;5.930;2024-03-23T09:47:35;7.15;;;1.70;;
75356;SDS011;63946;51.986;5.930;2024-03-23T09:50:02;7.18;;;1.70;;
75356;SDS011;63946;51.986;5.930;2024-03-23T09:52:28;6.57;;;1.88;;
75356;SDS011;63946;51.986;5.930;2024-03-23T09:54:59;10.20;;;1.73;;
75356;SDS011;63946;51.986;5.930;2024-03-23T09:57:25;6.65;;;1.52;;
75356;SDS011;63946;51.986;5.930;2024-03-23T09:59:51;5.63;;;1.75;;
75356;SDS011;63946;51.986;5.930;2024-03-23T10:02:17;7.40;;;1.77;;
75356;SDS011;63946;51.986;5.930;2024-03-23T10:04:43;11.32;;;2.70;;
75356;SDS011;63946;51.986;5.930;2024-03-23T10:07:19;8.70;;;2.25;;
75356;SDS011;63946;51.986;5.930;2024-03-23T10:09:46;10.98;;;1.75;;
75356;SDS011;63946;51.986;5.930;2024-03-23T10:12:12;7.90;;;2.03;;
75356;SDS011;63946;51.986;5.930;2024-03-23T10:14:40;7.13;;;2.10;;
75356;SDS011;63946;51.986;5.930;2024-03-23T10:17:17;8.25;;;1.92;;
75356;SDS011;63946;51.986;5.930;2024-03-23T10:22:12;5.40;;;1.73;;
75356;SDS011;63946;51.986;5.930;2024-03-23T10:24:40;3.78;;;1.20;;
75356;SDS011;63946;51.986;5.930;2024-03-23T10:27:09;7.28;;;1.75;;
75356;SDS011;63946;51.986;5.930;2024-03-23T10:29:40;9.85;;;1.40;;
75356;SDS011;63946;51.986;5.930;2024-03-23T10:32:11;5.38;;;1.35;;
75356;SDS011;63946;51.986;5.930;2024-03-23T10:34:38;8.40;;;1.55;;
75356;SDS011;63946;51.986;5.930;2024-03-23T10:37:05;4.68;;;1.23;;
75356;SDS011;63946;51.986;5.930;2024-03-23T10:39:32;7.15;;;1.40;;
75356;SDS011;63946;51.986;5.930;2024-03-23T10:42:07;4.70;;;1.08;;
75356;SDS011;63946;51.986;5.930;2024-03-23T10:44:34;5.80;;;1.40;;
75356;SDS011;63946;51.986;5.930;2024-03-23T10:47:01;6.35;;;1.95;;
75356;SDS011;63946;51.986;5.930;2024-03-23T10:49:31;4.90;;;1.50;;
75356;SDS011;63946;51.986;5.930;2024-03-23T10:51:59;5.20;;;1.75;;
75356;SDS011;63946;51.986;5.930;2024-03-23T10:54:32;5.72;;;1.65;;
75356;SDS011;63946;51.986;5.930;2024-03-23T10:57:06;8.43;;;1.90;;
75356;SDS011;63946;51.986;5.930;2024-03-23T10:59:38;8.80;;;1.55;;
75356;SDS011;63946;51.986;5.930;2024-03-23T11:02:05;4.68;;;1.58;;
75356;SDS011;63946;51.986;5.930;2024-03-23T11:04:36;6.72;;;2.20;;
75356;SDS011;63946;51.986;5.930;2024-03-23T11:09:50;5.38;;;1.52;;
75356;SDS011;63946;51.986;5.930;2024-03-23T11:15:02;6.63;;;1.40;;
75356;SDS011;63946;51.986;5.930;2024-03-23T11:17:33;9.90;;;1.80;;
75356;SDS011;63946;51.986;5.930;2024-03-23T11:20:00;7.20;;;1.60;;
75356;SDS011;63946;51.986;5.930;2024-03-23T11:22:39;5.22;;;1.55;;
75356;SDS011;63946;51.986;5.930;2024-03-23T11:25:16;6.95;;;1.58;;
75356;SDS011;63946;51.986;5.930;2024-03-23T11:27:46;6.20;;;1.90;;
75356;SDS011;63946;51.986;5.930;2024-03-23T11:30:17;8.18;;;1.90;;
75356;SDS011;63946;51.986;5.930;2024-03-23T11:32:45;6.72;;;1.65;;
75356;SDS011;63946;51.986;5.930;2024-03-23T11:38:11;4.45;;;1.10;;
75356;SDS011;63946;51.986;5.930;2024-03-23T11:40:40;4.53;;;1.15;;
75356;SDS011;63946;51.986;5.930;2024-03-23T11:43:10;10.82;;;1.55;;
75356;SDS011;63946;51.986;5.930;2024-03-23T11:45:39;5.80;;;1.63;;
75356;SDS011;63946;51.986;5.930;2024-03-23T11:48:09;9.10;;;1.40;;
75356;SDS011;63946;51.986;5.930;2024-03-23T11:50:37;6.40;;;1.60;;
75356;SDS011;63946;51.986;5.930;2024-03-23T11:53:11;6.43;;;1.55;;
75356;SDS011;63946;51.986;5.930;2024-03-23T11:55:45;5.82;;;1.63;;
75356;SDS011;63946;51.986;5.930;2024-03-23T11:58:18;9.27;;;1.63;;
75356;SDS011;63946;51.986;5.930;2024-03-23T12:00:49;3.85;;;1.55;;
75356;SDS011;63946;51.986;5.930;2024-03-23T12:03:23;4.07;;;1.50;;
75356;SDS011;63946;51.986;5.930;2024-03-23T12:05:51;7.47;;;1.80;;
75356;SDS011;63946;51.986;5.930;2024-03-23T12:08:19;5.72;;;1.45;;
75356;SDS011;63946;51.986;5.930;2024-03-23T12:10:48;8.88;;;2.00;;
75356;SDS011;63946;51.986;5.930;2024-03-23T12:13:16;6.68;;;1.85;;
75356;SDS011;63946;51.986;5.930;2024-03-23T12:15:43;6.60;;;1.85;;
75356;SDS011;63946;51.986;5.930;2024-03-23T12:18:10;4.93;;;1.20;;
75356;SDS011;63946;51.986;5.930;2024-03-23T12:20:37;3.00;;;1.05;;
75356;SDS011;63946;51.986;5.930;2024-03-23T12:23:05;3.75;;;1.17;;
75356;SDS011;63946;51.986;5.930;2024-03-23T12:25:32;5.70;;;1.77;;
75356;SDS011;63946;51.986;5.930;2024-03-23T12:27:59;5.28;;;1.33;;
75356;SDS011;63946;51.986;5.930;2024-03-23T12:30:25;4.93;;;1.52;;
75356;SDS011;63946;51.986;5.930;2024-03-23T12:32:51;6.70;;;2.08;;
75356;SDS011;63946;51.986;5.930;2024-03-23T12:35:18;6.75;;;1.50;;
75356;SDS011;63946;51.986;5.930;2024-03-23T12:37:44;7.05;;;1.63;;
75356;SDS011;63946;51.986;5.930;2024-03-23T12:40:10;7.03;;;1.83;;
75356;SDS011;63946;51.986;5.930;2024-03-23T12:42:36;6.75;;;1.67;;
75356;SDS011;63946;51.986;5.930;2024-03-23T12:45:03;5.88;;;1.85;;
75356;SDS011;63946;51.986;5.930;2024-03-23T12:47:30;6.38;;;1.33;;
75356;SDS011;63946;51.986;5.930;2024-03-23T12:49:56;4.78;;;1.55;;
75356;SDS011;63946;51.986;5.930;2024-03-23T12:52:22;7.85;;;2.20;;
75356;SDS011;63946;51.986;5.930;2024-03-23T12:54:48;5.85;;;1.40;;
75356;SDS011;63946;51.986;5.930;2024-03-23T12:57:15;8.30;;;2.35;;
75356;SDS011;63946;51.986;5.930;2024-03-23T12:59:41;7.80;;;2.10;;
75356;SDS011;63946;51.986;5.930;2024-03-23T13:02:07;4.72;;;1.45;;
75356;SDS011;63946;51.986;5.930;2024-03-23T13:04:33;6.40;;;1.35;;
75356;SDS011;63946;51.986;5.930;2024-03-23T13:06:59;4.95;;;1.60;;
75356;SDS011;63946;51.986;5.930;2024-03-23T13:09:25;6.03;;;1.63;;
75356;SDS011;63946;51.986;5.930;2024-03-23T13:11:51;4.95;;;1.55;;
75356;SDS011;63946;51.986;5.930;2024-03-23T13:14:17;8.05;;;1.80;;
75356;SDS011;63946;51.986;5.930;2024-03-23T13:16:43;6.88;;;1.58;;
75356;SDS011;63946;51.986;5.930;2024-03-23T13:19:10;7.35;;;2.20;;
75356;SDS011;63946;51.986;5.930;2024-03-23T13:21:36;6.82;;;1.30;;
75356;SDS011;63946;51.986;5.930;2024-03-23T13:24:02;8.77;;;1.70;;
75356;SDS011;63946;51.986;5.930;2024-03-23T13:26:28;4.78;;;1.98;;
75356;SDS011;63946;51.986;5.930;2024-03-23T13:28:55;5.40;;;1.60;;
75356;SDS011;63946;51.986;5.930;2024-03-23T13:31:21;5.68;;;1.55;;
75356;SDS011;63946;51.986;5.930;2024-03-23T13:33:47;7.93;;;2.00;;
75356;SDS011;63946;51.986;5.930;2024-03-23T13:36:13;8.43;;;1.88;;
75356;SDS011;63946;51.986;5.930;2024-03-23T13:38:42;4.63;;;1.50;;
75356;SDS011;63946;51.986;5.930;2024-03-23T13:41:08;5.53;;;1.58;;
75356;SDS011;63946;51.986;5.930;2024-03-23T13:43:34;7.47;;;1.85;;
75356;SDS011;63946;51.986;5.930;2024-03-23T13:46:00;6.60;;;1.92;;
75356;SDS011;63946;51.986;5.930;2024-03-23T13:48:27;6.78;;;2.03;;
75356;SDS011;63946;51.986;5.930;2024-03-23T13:50:56;7.28;;;1.50;;
75356;SDS011;63946;51.986;5.930;2024-03-23T13:53:23;7.63;;;1.58;;
75356;SDS011;63946;51.986;5.930;2024-03-23T13:55:49;4.28;;;1.30;;
75356;SDS011;63946;51.986;5.930;2024-03-23T13:58:16;5.45;;;1.50;;
75356;SDS011;63946;51.986;5.930;2024-03-23T14:00:42;2.95;;;1.35;;
75356;SDS011;63946;51.986;5.930;2024-03-23T14:03:09;6.25;;;1.45;;
75356;SDS011;63946;51.986;5.930;2024-03-23T14:05:36;3.67;;;1.30;;
75356;SDS011;63946;51.986;5.930;2024-03-23T14:08:03;6.63;;;1.52;;
75356;SDS011;63946;51.986;5.930;2024-03-23T14:10:30;5.80;;;1.85;;
75356;SDS011;63946;51.986;5.930;2024-03-23T14:12:56;7.55;;;1.60;;
75356;SDS011;63946;51.986;5.930;2024-03-23T14:15:28;3.28;;;1.20;;
75356;SDS011;63946;51.986;5.930;2024-03-23T14:17:56;6.78;;;1.65;;
75356;SDS011;63946;51.986;5.930;2024-03-23T14:20:22;6.20;;;1.38;;
75356;SDS011;63946;51.986;5.930;2024-03-23T14:22:49;5.00;;;1.58;;
75356;SDS011;63946;51.986;5.930;2024-03-23T14:25:16;3.22;;;1.25;;
75356;SDS011;63946;51.986;5.930;2024-03-23T14:27:45;3.05;;;1.00;;
75356;SDS011;63946;51.986;5.930;2024-03-23T14:30:12;6.32;;;1.70;;
75356;SDS011;63946;51.986;5.930;2024-03-23T14:32:39;4.07;;;1.20;;
75356;SDS011;63946;51.986;5.930;2024-03-23T14:35:05;4.15;;;1.33;;
75356;SDS011;63946;51.986;5.930;2024-03-23T14:37:32;8.73;;;1.40;;
75356;SDS011;63946;51.986;5.930;2024-03-23T14:39:58;4.68;;;1.30;;
75356;SDS011;63946;51.986;5.930;2024-03-23T14:42:25;6.05;;;1.40;;
75356;SDS011;63946;51.986;5.930;2024-03-23T14:44:51;3.05;;;1.08;;
75356;SDS011;63946;51.986;5.930;2024-03-23T14:47:17;4.13;;;1.10;;
75356;SDS011;63946;51.986;5.930;2024-03-23T14:49:44;5.15;;;1.08;;
75356;SDS011;63946;51.986;5.930;2024-03-23T14:52:11;2.70;;;0.95;;
75356;SDS011;63946;51.986;5.930;2024-03-23T14:54:37;5.50;;;1.40;;
75356;SDS011;63946;51.986;5.930;2024-03-23T14:57:06;6.10;;;1.85;;
75356;SDS011;63946;51.986;5.930;2024-03-23T14:59:33;5.45;;;1.08;;
75356;SDS011;63946;51.986;5.930;2024-03-23T15:01:59;4.95;;;1.33;;
75356;SDS011;63946;51.986;5.930;2024-03-23T15:04:25;4.30;;;1.30;;
75356;SDS011;63946;51.986;5.930;2024-03-23T15:06:51;4.07;;;1.52;;
75356;SDS011;63946;51.986;5.930;2024-03-23T15:09:17;6.88;;;1.85;;
75356;SDS011;63946;51.986;5.930;2024-03-23T15:11:43;6.53;;;1.83;;
75356;SDS011;63946;51.986;5.930;2024-03-23T15:14:10;7.45;;;1.30;;
75356;SDS011;63946;51.986;5.930;2024-03-23T15:16:36;6.07;;;1.40;;
75356;SDS011;63946;51.986;5.930;2024-03-23T15:19:03;3.88;;;1.23;;
75356;SDS011;63946;51.986;5.930;2024-03-23T15:21:29;4.50;;;1.20;;
75356;SDS011;63946;51.986;5.930;2024-03-23T15:23:55;6.03;;;1.48;;
75356;SDS011;63946;51.986;5.930;2024-03-23T15:26:21;7.32;;;1.77;;
75356;SDS011;63946;51.986;5.930;2024-03-23T15:28:48;8.93;;;1.73;;
75356;SDS011;63946;51.986;5.930;2024-03-23T15:31:20;3.28;;;1.42;;
75356;SDS011;63946;51.986;5.930;2024-03-23T15:33:46;5.40;;;1.40;;
75356;SDS011;63946;51.986;5.930;2024-03-23T15:36:15;5.13;;;1.58;;
75356;SDS011;63946;51.986;5.930;2024-03-23T15:38:41;7.10;;;1.60;;
75356;SDS011;63946;51.986;5.930;2024-03-23T15:41:07;5.40;;;1.65;;
75356;SDS011;63946;51.986;5.930;2024-03-23T15:43:34;5.47;;;1.40;;
75356;SDS011;63946;51.986;5.930;2024-03-23T15:46:01;8.00;;;2.03;;
75356;SDS011;63946;51.986;5.930;2024-03-23T15:48:29;7.38;;;1.77;;
75356;SDS011;63946;51.986;5.930;2024-03-23T15:50:59;5.65;;;1.63;;
75356;SDS011;63946;51.986;5.930;2024-03-23T15:53:26;6.40;;;1.63;;
75356;SDS011;63946;51.986;5.930;2024-03-23T15:55:56;6.35;;;1.60;;
75356;SDS011;63946;51.986;5.930;2024-03-23T15:58:26;5.72;;;1.10;;
75356;SDS011;63946;51.986;5.930;2024-03-23T16:00:57;3.55;;;1.52;;
75356;SDS011;63946;51.986;5.930;2024-03-23T16:03:23;4.47;;;1.88;;
75356;SDS011;63946;51.986;5.930;2024-03-23T16:05:53;4.45;;;1.30;;
75356;SDS011;63946;51.986;5.930;2024-03-23T16:08:21;3.92;;;1.02;;
75356;SDS011;63946;51.986;5.930;2024-03-23T16:10:47;4.03;;;0.90;;
75356;SDS011;63946;51.986;5.930;2024-03-23T16:13:14;4.40;;;1.30;;
75356;SDS011;63946;51.986;5.930;2024-03-23T16:15:40;3.58;;;0.85;;
75356;SDS011;63946;51.986;5.930;2024-03-23T16:18:06;3.05;;;1.02;;
75356;SDS011;63946;51.986;5.930;2024-03-23T16:20:32;2.58;;;1.02;;
75356;SDS011;63946;51.986;5.930;2024-03-23T16:22:59;3.75;;;1.05;;
75356;SDS011;63946;51.986;5.930;2024-03-23T16:25:25;4.45;;;1.50;;
75356;SDS011;63946;51.986;5.930;2024-03-23T16:27:52;2.92;;;0.98;;
75356;SDS011;63946;51.986;5.930;2024-03-23T16:30:18;3.25;;;0.73;;
75356;SDS011;63946;51.986;5.930;2024-03-23T16:32:46;4.60;;;1.30;;
75356;SDS011;63946;51.986;5.930;2024-03-23T16:35:15;5.55;;;1.50;;
75356;SDS011;63946;51.986;5.930;2024-03-23T16:37:41;1.77;;;0.88;;
75356;SDS011;63946;51.986;5.930;2024-03-23T16:40:08;4.20;;;1.40;;
75356;SDS011;63946;51.986;5.930;2024-03-23T16:42:35;8.23;;;1.60;;
75356;SDS011;63946;51.986;5.930;2024-03-23T16:45:01;4.80;;;1.33;;
75356;SDS011;63946;51.986;5.930;2024-03-23T16:47:28;4.65;;;1.20;;
75356;SDS011;63946;51.986;5.930;2024-03-23T16:49:54;4.60;;;1.02;;
75356;SDS011;63946;51.986;5.930;2024-03-23T16:52:20;3.10;;;0.90;;
75356;SDS011;63946;51.986;5.930;2024-03-23T16:54:46;1.63;;;1.10;;
75356;SDS011;63946;51.986;5.930;2024-03-23T16:57:13;5.00;;;1.35;;
75356;SDS011;63946;51.986;5.930;2024-03-23T16:59:39;2.88;;;0.82;;
75356;SDS011;63946;51.986;5.930;2024-03-23T17:02:05;2.97;;;1.00;;
75356;SDS011;63946;51.986;5.930;2024-03-23T17:04:31;2.80;;;0.93;;
75356;SDS011;63946;51.986;5.930;2024-03-23T17:06:57;4.32;;;1.30;;
75356;SDS011;63946;51.986;5.930;2024-03-23T17:09:24;4.00;;;1.00;;
75356;SDS011;63946;51.986;5.930;2024-03-23T17:11:50;4.75;;;1.10;;
75356;SDS011;63946;51.986;5.930;2024-03-23T17:14:16;3.65;;;0.80;;
75356;SDS011;63946;51.986;5.930;2024-03-23T17:16:42;2.13;;;0.68;;
75356;SDS011;63946;51.986;5.930;2024-03-23T17:19:08;1.85;;;0.80;;
75356;SDS011;63946;51.986;5.930;2024-03-23T17:21:34;3.47;;;1.20;;
75356;SDS011;63946;51.986;5.930;2024-03-23T17:24:01;3.00;;;0.98;;
75356;SDS011;63946;51.986;5.930;2024-03-23T17:26:27;4.65;;;1.30;;
75356;SDS011;63946;51.986;5.930;2024-03-23T17:28:53;2.78;;;1.02;;
75356;SDS011;63946;51.986;5.930;2024-03-23T17:31:19;5.45;;;1.48;;
75356;SDS011;63946;51.986;5.930;2024-03-23T17:33:49;3.25;;;1.27;;
75356;SDS011;63946;51.986;5.930;2024-03-23T17:36:16;4.97;;;1.40;;
75356;SDS011;63946;51.986;5.930;2024-03-23T17:38:45;5.00;;;1.25;;
75356;SDS011;63946;51.986;5.930;2024-03-23T17:43:48;3.97;;;1.20;;
75356;SDS011;63946;51.986;5.930;2024-03-23T17:46:14;4.50;;;1.63;;
75356;SDS011;63946;51.986;5.930;2024-03-23T17:48:41;3.60;;;0.80;;
75356;SDS011;63946;51.986;5.930;2024-03-23T17:51:07;4.53;;;1.30;;
75356;SDS011;63946;51.986;5.930;2024-03-23T17:53:39;2.35;;;0.80;;
75356;SDS011;63946;51.986;5.930;2024-03-23T17:56:06;1.63;;;0.82;;
75356;SDS011;63946;51.986;5.930;2024-03-23T17:58:33;3.30;;;1.27;;
75356;SDS011;63946;51.986;5.930;2024-03-23T18:01:09;1.45;;;0.68;;
75356;SDS011;63946;51.986;5.930;2024-03-23T18:03:35;1.83;;;0.85;;
75356;SDS011;63946;51.986;5.930;2024-03-23T18:06:04;4.82;;;1.05;;
75356;SDS011;63946;51.986;5.930;2024-03-23T18:08:30;1.13;;;0.63;;
75356;SDS011;63946;51.986;5.930;2024-03-23T18:10:57;1.05;;;0.85;;
75356;SDS011;63946;51.986;5.930;2024-03-23T18:15:56;3.50;;;1.30;;
75356;SDS011;63946;51.986;5.930;2024-03-23T18:18:22;7.88;;;3.55;;
75356;SDS011;63946;51.986;5.930;2024-03-23T18:20:48;3.80;;;1.80;;
75356;SDS011;63946;51.986;5.930;2024-03-23T18:23:15;3.28;;;1.40;;
75356;SDS011;63946;51.986;5.930;2024-03-23T18:25:41;3.70;;;1.27;;
75356;SDS011;63946;51.986;5.930;2024-03-23T18:28:23;25.17;;;15.02;;
75356;SDS011;63946;51.986;5.930;2024-03-23T18:30:59;7.43;;;4.88;;
75356;SDS011;63946;51.986;5.930;2024-03-23T18:33:26;4.80;;;2.30;;
75356;SDS011;63946;51.986;5.930;2024-03-23T18:35:57;3.65;;;1.88;;
75356;SDS011;63946;51.986;5.930;2024-03-23T18:38:23;2.63;;;1.70;;
75356;SDS011;63946;51.986;5.930;2024-03-23T18:40:52;4.00;;;2.03;;
75356;SDS011;63946;51.986;5.930;2024-03-23T18:43:18;2.42;;;1.70;;
75356;SDS011;63946;51.986;5.930;2024-03-23T18:45:48;2.70;;;1.77;;
75356;SDS011;63946;51.986;5.930;2024-03-23T18:48:17;6.82;;;2.25;;
75356;SDS011;63946;51.986;5.930;2024-03-23T18:50:43;4.78;;;2.08;;
75356;SDS011;63946;51.986;5.930;2024-03-23T18:53:10;3.13;;;1.80;;
75356;SDS011;63946;51.986;5.930;2024-03-23T18:55:37;3.22;;;1.80;;
75356;SDS011;63946;51.986;5.930;2024-03-23T18:58:03;4.43;;;1.60;;
75356;SDS011;63946;51.986;5.930;2024-03-23T19:00:30;3.65;;;2.00;;
75356;SDS011;63946;51.986;5.930;2024-03-23T19:02:56;3.08;;;2.20;;
75356;SDS011;63946;51.986;5.930;2024-03-23T19:05:23;3.33;;;1.38;;
75356;SDS011;63946;51.986;5.930;2024-03-23T19:07:49;1.85;;;1.10;;
75356;SDS011;63946;51.986;5.930;2024-03-23T19:10:16;2.83;;;1.08;;
75356;SDS011;63946;51.986;5.930;2024-03-23T19:12:45;2.08;;;1.30;;
75356;SDS011;63946;51.986;5.930;2024-03-23T19:15:11;4.13;;;1.58;;
75356;SDS011;63946;51.986;5.930;2024-03-23T19:17:37;3.15;;;1.50;;
75356;SDS011;63946;51.986;5.930;2024-03-23T19:20:07;5.03;;;1.50;;
75356;SDS011;63946;51.986;5.930;2024-03-23T19:22:33;3.72;;;2.03;;
75356;SDS011;63946;51.986;5.930;2024-03-23T19:24:59;5.88;;;1.60;;
75356;SDS011;63946;51.986;5.930;2024-03-23T19:27:27;4.82;;;1.50;;
75356;SDS011;63946;51.986;5.930;2024-03-23T19:29:57;2.97;;;1.60;;
75356;SDS011;63946;51.986;5.930;2024-03-23T19:32:23;6.57;;;1.58;;
75356;SDS011;63946;51.986;5.930;2024-03-23T19:34:49;3.08;;;1.30;;
75356;SDS011;63946;51.986;5.930;2024-03-23T19:37:16;3.53;;;1.48;;
75356;SDS011;63946;51.986;5.930;2024-03-23T19:39:44;3.97;;;1.25;;
75356;SDS011;63946;51.986;5.930;2024-03-23T19:42:11;3.35;;;1.73;;
75356;SDS011;63946;51.986;5.930;2024-03-23T19:44:37;2.55;;;1.40;;
75356;SDS011;63946;51.986;5.930;2024-03-23T19:47:03;4.70;;;2.17;;
75356;SDS011;63946;51.986;5.930;2024-03-23T19:49:29;4.32;;;1.80;;
75356;SDS011;63946;51.986;5.930;2024-03-23T19:51:55;4.82;;;2.30;;
75356;SDS011;63946;51.986;5.930;2024-03-23T19:54:21;5.43;;;2.15;;
75356;SDS011;63946;51.986;5.930;2024-03-23T19:56:48;5.72;;;2.60;;
75356;SDS011;63946;51.986;5.930;2024-03-23T19:59:14;6.47;;;2.45;;
75356;SDS011;63946;51.986;5.930;2024-03-23T20:01:40;8.52;;;2.80;;
75356;SDS011;63946;51.986;5.930;2024-03-23T20:04:06;3.90;;;1.92;;
75356;SDS011;63946;51.986;5.930;2024-03-23T20:06:32;4.88;;;2.13;;
75356;SDS011;63946;51.986;5.930;2024-03-23T20:08:59;5.15;;;2.08;;
75356;SDS011;63946;51.986;5.930;2024-03-23T20:11:25;3.35;;;2.00;;
75356;SDS011;63946;51.986;5.930;2024-03-23T20:13:51;4.90;;;1.88;;
75356;SDS011;63946;51.986;5.930;2024-03-23T20:16:18;5.68;;;2.10;;
75356;SDS011;63946;51.986;5.930;2024-03-23T20:18:44;4.18;;;1.90;;
75356;SDS011;63946;51.986;5.930;2024-03-23T20:21:10;4.75;;;2.03;;
75356;SDS011;63946;51.986;5.930;2024-03-23T20:23:36;5.85;;;1.95;;
75356;SDS011;63946;51.986;5.930;2024-03-23T20:26:03;7.80;;;2.53;;
75356;SDS011;63946;51.986;5.930;2024-03-23T20:28:29;5.20;;;2.15;;
75356;SDS011;63946;51.986;5.930;2024-03-23T20:30:59;4.18;;;1.70;;
75356;SDS011;63946;51.986;5.930;2024-03-23T20:33:27;5.47;;;2.20;;
75356;SDS011;63946;51.986;5.930;2024-03-23T20:35:53;5.20;;;1.52;;
75356;SDS011;63946;51.986;5.930;2024-03-23T20:38:20;8.13;;;1.88;;
75356;SDS011;63946;51.986;5.930;2024-03-23T20:43:20;5.78;;;1.98;;
75356;SDS011;63946;51.986;5.930;2024-03-23T20:45:46;7.13;;;2.08;;
75356;SDS011;63946;51.986;5.930;2024-03-23T20:48:20;11.18;;;2.10;;
75356;SDS011;63946;51.986;5.930;2024-03-23T20:50:54;4.80;;;1.58;;
75356;SDS011;63946;51.986;5.930;2024-03-23T20:53:25;4.30;;;1.85;;
75356;SDS011;63946;51.986;5.930;2024-03-23T20:55:55;6.30;;;2.00;;
75356;SDS011;63946;51.986;5.930;2024-03-23T21:00:49;5.45;;;1.70;;
75356;SDS011;63946;51.986;5.930;2024-03-23T21:03:16;3.75;;;1.70;;
75356;SDS011;63946;51.986;5.930;2024-03-23T21:05:42;7.35;;;2.15;;